Weather History for Oxford, MS

Change the Weather History Date:

Tuesday, January 24, 2012

  Actual Average Record
Temperature  
Mean Temperature 44 °F -  
Max Temperature 60 °F 52 °F 80 °F (1943)
Min Temperature 28 °F 31 °F -2 °F (1963)
Degree Days  
Heating Degree Days 21    
Moisture  
Dew Point 29 °F    
Average Humidity 66    
Maximum Humidity 100    
Minimum Humidity 25    
Precipitation  
Precipitation 0.00 in - - ()
Sea Level Pressure  
Sea Level Pressure 30.22 in    
Wind  
Wind Speed - (North)    
Max Wind Speed -    
Max Gust Speed -    
Visibility 10 miles    
Events      
Averages and records for this station are not official NWS values.
T = Trace of Precipitation, MM = Missing Value Source: NWS Daily Summary

Daily Weather History Graph

Daily Weather History Graph

Search for Another Location

Airport:

Trip Planner

Search our weather history database for the weather conditions in past years. The results will help you decide how hot, cold, wet, or windy it might be!

Date:

Astronomy

Jan. 24, 2012 Rise Set
Actual Time 7:01 AM CST 5:19 PM CST
Civil Twilight 6:34 AM CST 5:46 PM CST
Nautical Twilight 6:03 AM CST 6:16 PM CST
Astronomical Twilight 5:33 AM CST 6:46 PM CST
Moon 7:36 AM CST (1/24) 7:04 PM CST (1/24)
Length of Visible Light 11h 12m
Length of Day
10h 18m
New Moon, 2% of the Moon is Illuminated
Jan 24
New Moon
Jan 30
First Quarter
Feb 7
Full
Feb 14
Last Quarter
Feb 21
New

Hourly Weather History & Observations

Time (CST) Temp. Dew Point Humidity Pressure Visibility Wind Dir Wind Speed Gust Speed Precip Events Conditions
12:15 AM 32.0 °F 32.0 °F 100% 30.13 in 10.0 mi North - - N/A   Clear
12:35 AM 32.0 °F 32.0 °F 100% 30.14 in 10.0 mi North - - N/A   Clear
12:55 AM 32.0 °F 32.0 °F 100% 30.15 in 10.0 mi North - - N/A   Clear
1:15 AM 32.0 °F 32.0 °F 100% 30.16 in 10.0 mi North - - N/A   Clear
1:35 AM 32.0 °F 32.0 °F 100% 30.16 in 10.0 mi North - - N/A   Clear
1:55 AM 32.0 °F 32.0 °F 100% 30.16 in 10.0 mi North - - N/A   Clear
2:15 AM 32.0 °F 32.0 °F 100% 30.16 in 10.0 mi North - - N/A   Clear
2:35 AM 32.0 °F 30.2 °F 93% 30.17 in 10.0 mi North - - N/A   Clear
2:55 AM 32.0 °F 30.2 °F 93% 30.17 in 10.0 mi North - - N/A   Clear
3:15 AM 32.0 °F 32.0 °F 100% 30.17 in 10.0 mi North - - N/A   Clear
3:35 AM 32.0 °F 30.2 °F 93% 30.17 in 10.0 mi North - - N/A   Clear
3:55 AM 32.0 °F 30.2 °F 93% 30.17 in 10.0 mi North - - N/A   Clear
4:15 AM 32.0 °F 30.2 °F 93% 30.18 in 10.0 mi North - - N/A   Clear
4:35 AM 30.2 °F 28.4 °F 93% 30.19 in 10.0 mi North - - N/A   Clear
4:55 AM 30.2 °F 28.4 °F 93% 30.19 in 10.0 mi North - - N/A   Clear
5:15 AM 30.2 °F 28.4 °F 93% 30.20 in 10.0 mi North - - N/A   Clear
5:35 AM 28.4 °F 28.4 °F 100% 30.21 in 10.0 mi North - - N/A   Clear
5:55 AM 30.2 °F 28.4 °F 93% 30.21 in 10.0 mi North - - N/A   Clear
6:15 AM 28.4 °F 28.4 °F 100% 30.22 in 10.0 mi North - - N/A   Clear
6:35 AM 28.4 °F 28.4 °F 100% 30.23 in 10.0 mi North - - N/A   Clear
7:15 AM 28.4 °F 28.4 °F 100% 30.23 in 10.0 mi North - - N/A   Clear
7:35 AM 30.2 °F 28.4 °F 93% 30.24 in 10.0 mi North - - N/A   Clear
7:55 AM 32.0 °F 30.2 °F 93% 30.24 in 10.0 mi North - - N/A   Clear
8:15 AM 33.8 °F 32.0 °F 93% 30.25 in 10.0 mi North - - N/A   Clear
8:35 AM 37.4 °F 35.6 °F 93% 30.26 in 10.0 mi North - - N/A   Clear
8:55 AM 41.0 °F 37.4 °F 87% 30.27 in 10.0 mi North - - N/A   Clear
9:15 AM 48.2 °F 32.0 °F 54% 30.28 in 10.0 mi North - - N/A   Clear
9:35 AM 50.0 °F 32.0 °F 50% 30.28 in 10.0 mi North - - N/A   Clear
9:55 AM 50.0 °F 28.4 °F 43% 30.28 in 10.0 mi North - - N/A   Clear
10:35 AM 53.6 °F 26.6 °F 35% 30.28 in 10.0 mi North - - N/A   Clear
10:55 AM 55.4 °F 26.6 °F 33% 30.28 in 10.0 mi North - - N/A   Clear
11:15 AM 55.4 °F 28.4 °F 36% 30.27 in 10.0 mi North - - N/A   Clear
11:35 AM 55.4 °F 26.6 °F 33% 30.27 in 10.0 mi North - - N/A   Clear
11:55 AM 57.2 °F 26.6 °F 31% 30.26 in 10.0 mi North - - N/A   Clear
12:15 PM 57.2 °F 26.6 °F 31% 30.25 in 10.0 mi North - - N/A   Clear
12:35 PM 57.2 °F 26.6 °F 31% 30.24 in 10.0 mi North - - N/A   Clear
12:55 PM 57.2 °F 24.8 °F 29% 30.23 in 10.0 mi North - - N/A   Clear
1:15 PM 59.0 °F 26.6 °F 29% 30.23 in 10.0 mi North - - N/A   Clear
1:35 PM 59.0 °F 28.4 °F 31% 30.22 in 10.0 mi North - - N/A   Clear
1:55 PM 59.0 °F 28.4 °F 31% 30.21 in 10.0 mi North - - N/A   Clear
2:15 PM 59.0 °F 24.8 °F 27% 30.21 in 10.0 mi North - - N/A   Clear
2:35 PM 60.8 °F 26.6 °F 27% 30.21 in 10.0 mi North - - N/A   Clear
2:55 PM 60.8 °F 24.8 °F 25% 30.21 in 10.0 mi North - - N/A   Clear
3:15 PM 60.8 °F 24.8 °F 25% 30.21 in 10.0 mi North - - N/A   Clear
3:35 PM 60.8 °F 26.6 °F 27% 30.21 in 10.0 mi North - - N/A   Clear
3:55 PM 59.0 °F 26.6 °F 29% 30.20 in 10.0 mi North - - N/A   Clear
4:15 PM 59.0 °F 28.4 °F 31% 30.21 in 10.0 mi North - - N/A   Clear
4:35 PM 59.0 °F 28.4 °F 31% 30.21 in 10.0 mi North - - N/A   Clear
5:15 PM 53.6 °F 30.2 °F 41% 30.22 in 10.0 mi North - - N/A   Clear
5:35 PM 50.0 °F 32.0 °F 50% 30.23 in 10.0 mi North - - N/A   Clear
5:55 PM 48.2 °F 32.0 °F 54% 30.23 in 10.0 mi North - - N/A   Clear
6:15 PM 48.2 °F 33.8 °F 58% 30.24 in 10.0 mi North - - N/A   Clear
6:35 PM 50.0 °F 32.0 °F 50% 30.22 in 10.0 mi North - - N/A   Clear
6:55 PM 50.0 °F 32.0 °F 50% 30.23 in 10.0 mi North - - N/A   Clear
7:15 PM 50.0 °F 30.2 °F 47% 30.22 in 10.0 mi North - - N/A   Clear
7:35 PM 50.0 °F 30.2 °F 47% 30.22 in 10.0 mi North - - N/A   Clear
7:55 PM 48.2 °F 32.0 °F 54% 30.22 in 10.0 mi North - - N/A   Clear
8:15 PM 48.2 °F 30.2 °F 50% 30.22 in 10.0 mi North - - N/A   Clear
8:35 PM 48.2 °F 30.2 °F 50% 30.23 in 10.0 mi North - - N/A   Clear
8:55 PM 48.2 °F 30.2 °F 50% 30.23 in 10.0 mi North - - N/A   Clear
9:15 PM 48.2 °F 32.0 °F 54% 30.24 in 10.0 mi North - - N/A   Clear
9:35 PM 48.2 °F 32.0 °F 54% 30.24 in 10.0 mi North - - N/A   Clear
9:55 PM 48.2 °F 30.2 °F 50% 30.24 in 10.0 mi North - - N/A   Clear
10:15 PM 48.2 °F 30.2 °F 50% 30.23 in 10.0 mi North - - N/A   Clear
10:35 PM 48.2 °F 28.4 °F 46% 30.21 in 10.0 mi North - - N/A   Clear
11:15 PM 48.2 °F 30.2 °F 50% 30.21 in 10.0 mi North - - N/A   Partly Cloudy
11:35 PM 48.2 °F 30.2 °F 50% 30.21 in 10.0 mi North - - N/A   Partly Cloudy
11:55 PM 48.2 °F 32.0 °F 54% 30.20 in 10.0 mi North - - N/A   Scattered Clouds